Time;durP1;ratioP1;P1;durP2;ratioP2;P2;SDS_P1;SDS_P2;PMS_P1;PMS_P2;Temp;Humidity;BMP_temperature;BMP_pressure;BME280_temperature;BME280_humidity;BME280_pressure;Samples;Min_cycle;Max_cycle;Signal;HPM_P1;HPM_P2
2022/01/16 00:04:16;;;;;;;25.47;9.63;;;;;;;-1.61;85.65;101537.00;5018865;28;20120;-78
2022/01/16 00:06:43;;;;;;;24.83;10.00;;;;;;;-1.61;85.02;101524.06;5026067;28;20045;-77
2022/01/16 00:09:09;;;;;;;21.10;8.20;;;;;;;-1.63;85.87;101521.38;5019659;28;20045;-78
2022/01/16 00:11:35;;;;;;;26.47;11.20;;;;;;;-1.65;84.93;101525.59;5016134;28;20096;-77
2022/01/16 00:14:02;;;;;;;21.43;9.40;;;;;;;-1.65;85.06;101537.63;5015035;28;20037;-77
2022/01/16 00:16:28;;;;;;;22.63;8.73;;;;;;;-1.74;84.83;101534.50;5014833;28;20108;-77
2022/01/16 00:18:53;;;;;;;21.37;8.93;;;;;;;-1.77;85.15;101550.75;5012901;28;20030;-77
2022/01/16 00:21:21;;;;;;;23.93;9.37;;;;;;;-1.74;84.80;101539.69;5014696;28;20121;-76
2022/01/16 00:23:47;;;;;;;22.77;8.83;;;;;;;-1.79;84.74;101501.47;5017577;28;20427;-77
2022/01/16 00:26:13;;;;;;;24.57;10.10;;;;;;;-1.79;85.12;101496.28;5019049;28;20141;-77
2022/01/16 00:28:39;;;;;;;23.47;7.90;;;;;;;-1.81;85.06;101512.53;5014875;28;20060;-77
2022/01/16 00:31:04;;;;;;;24.50;8.63;;;;;;;-1.85;85.10;101506.28;5015067;28;20045;-77
2022/01/16 00:33:29;;;;;;;20.90;7.87;;;;;;;-1.98;84.73;101511.53;5015105;28;20232;-77
2022/01/16 00:35:55;;;;;;;24.70;9.73;;;;;;;-2.00;85.04;101515.72;5014738;28;20049;-77
2022/01/16 00:38:20;;;;;;;23.13;9.17;;;;;;;-1.95;85.24;101492.72;5013564;28;20038;-77
2022/01/16 00:40:45;;;;;;;32.67;10.93;;;;;;;-1.97;85.11;101490.03;5021924;28;20037;-77
2022/01/16 00:43:11;;;;;;;24.23;9.57;;;;;;;-2.00;85.35;101485.56;5014547;28;20042;-77
2022/01/16 00:45:36;;;;;;;28.47;8.87;;;;;;;-2.01;85.49;101470.84;5014675;28;20045;-77
2022/01/16 00:48:05;;;;;;;25.57;8.33;;;;;;;-1.97;85.75;101466.75;5014575;28;20034;-77
2022/01/16 00:50:32;;;;;;;22.23;9.43;;;;;;;-1.94;85.30;101459.16;5011223;28;20045;-76
2022/01/16 00:52:57;;;;;;;26.37;8.57;;;;;;;-1.92;85.51;101465.31;5023164;28;20128;-77
2022/01/16 00:55:23;;;;;;;31.70;9.77;;;;;;;-1.88;85.60;101463.84;5021808;28;20507;-76
2022/01/16 00:57:49;;;;;;;28.07;8.63;;;;;;;-1.87;85.27;101458.72;5015166;28;20030;-78
2022/01/16 01:00:15;;;;;;;24.57;8.30;;;;;;;-1.85;85.00;101480.41;5015211;28;20657;-77
2022/01/16 01:02:40;;;;;;;21.90;7.97;;;;;;;-1.86;85.03;101470.88;5015064;28;20400;-77
2022/01/16 01:05:07;;;;;;;32.77;8.77;;;;;;;-1.90;85.03;101487.00;5014209;28;20048;-77
2022/01/16 01:07:33;;;;;;;27.77;8.47;;;;;;;-1.91;84.71;101477.47;5015257;28;20069;-77
2022/01/16 01:09:58;;;;;;;26.00;7.87;;;;;;;-1.95;85.28;101459.09;5014517;28;20076;-77
2022/01/16 01:12:28;;;;;;;24.83;8.47;;;;;;;-2.00;85.63;101435.53;5014676;28;20091;-77
2022/01/16 01:15:13;;;;;;;21.50;7.70;;;;;;;-2.02;85.46;101445.81;5014192;28;20033;-77
2022/01/16 01:17:46;;;;;;;18.93;7.57;;;;;;;-2.08;86.01;101453.19;5011927;28;20037;-76
2022/01/16 01:20:16;;;;;;;20.73;6.90;;;;;;;-2.22;84.52;101454.94;5015064;28;20038;-77
2022/01/16 01:22:43;;;;;;;22.50;7.70;;;;;;;-2.20;85.49;101457.66;5013384;28;20565;-76
2022/01/16 01:25:11;;;;;;;21.13;7.57;;;;;;;-2.17;85.63;101467.25;5014381;28;20041;-77
2022/01/16 01:27:37;;;;;;;20.17;6.73;;;;;;;-2.19;85.82;101469.75;5021936;28;20064;-77
2022/01/16 01:30:06;;;;;;;21.63;8.27;;;;;;;-2.21;86.41;101480.00;5014955;28;20046;-77
2022/01/16 01:32:42;;;;;;;27.47;9.03;;;;;;;-2.14;86.10;101455.41;5015057;28;20495;-77
2022/01/16 01:35:10;;;;;;;23.93;7.33;;;;;;;-2.15;86.40;101450.13;5014306;28;20030;-77
2022/01/16 01:37:36;;;;;;;27.17;8.40;;;;;;;-2.16;86.15;101445.78;5014872;28;20443;-76
2022/01/16 01:40:08;;;;;;;23.20;8.10;;;;;;;-2.17;85.74;101368.97;5014472;28;20085;-77
2022/01/16 01:42:42;;;;;;;23.02;8.18;;;;;;;-2.23;85.99;101343.66;5014781;28;20481;-77
2022/01/16 01:53:21;;;;;;;22.13;7.63;;;;;;;-2.24;86.15;101376.38;5016809;28;20030;-78
2022/01/16 01:55:47;;;;;;;24.63;8.10;;;;;;;-2.19;86.34;101386.13;5019018;28;20056;-78
2022/01/16 01:58:14;;;;;;;24.73;7.30;;;;;;;-2.15;85.76;101390.66;5018706;28;20057;-77
2022/01/16 02:00:40;;;;;;;25.03;8.40;;;;;;;-2.16;85.97;101406.97;5019183;28;20053;-78
2022/01/16 02:05:50;;;;;;;20.67;7.67;;;;;;;-2.15;86.19;101382.88;5017290;28;20064;-78
2022/01/16 02:08:16;;;;;;;35.27;9.17;;;;;;;-2.17;86.39;101377.66;5016732;28;20030;-78
2022/01/16 02:10:42;;;;;;;20.23;8.00;;;;;;;-2.17;86.31;101390.56;5017030;28;20033;-78
2022/01/16 02:13:17;;;;;;;22.47;7.30;;;;;;;-2.16;86.70;101365.59;5015043;28;20037;-77
2022/01/16 02:31:47;;;;;;;21.00;7.90;;;;;;;-2.37;87.15;101371.28;5009152;28;20143;-76
2022/01/16 02:37:00;;;;;;;25.87;8.50;;;;;;;-2.37;86.77;101373.88;5011209;28;20046;-77
2022/01/16 02:39:28;;;;;;;23.80;8.77;;;;;;;-2.37;87.23;101366.13;5015798;28;20052;-77
2022/01/16 02:41:54;;;;;;;25.50;8.80;;;;;;;-2.38;86.63;101356.59;5014357;28;20084;-77
2022/01/16 02:44:29;;;;;;;19.30;7.43;;;;;;;-2.38;86.64;101348.84;5012437;28;20049;-77
2022/01/16 02:46:57;;;;;;;20.20;8.13;;;;;;;-2.39;86.83;101352.19;5020904;28;20474;-77
2022/01/16 02:49:28;;;;;;;22.67;8.40;;;;;;;-2.40;86.75;101334.91;5012832;28;20048;-78
2022/01/16 02:51:59;;;;;;;25.23;8.55;;;;;;;-2.42;86.57;101331.34;5014300;28;20045;-77
2022/01/16 02:54:26;;;;;;;24.70;8.13;;;;;;;-2.43;86.31;101325.28;5013823;28;20030;-78
2022/01/16 02:56:52;;;;;;;37.83;9.47;;;;;;;-2.44;86.64;101327.78;5014546;28;20052;-78
2022/01/16 02:59:18;;;;;;;23.27;8.77;;;;;;;-2.50;86.50;101324.84;5015234;28;20041;-77
2022/01/16 03:01:45;;;;;;;27.73;9.00;;;;;;;-2.54;86.91;101318.59;5014144;28;20042;-76
2022/01/16 03:04:10;;;;;;;22.27;7.70;;;;;;;-2.52;87.07;101313.50;5012002;28;20042;-77
2022/01/16 03:06:36;;;;;;;18.33;7.30;;;;;;;-2.50;86.50;101306.75;5011572;28;20034;-76
2022/01/16 03:09:06;;;;;;;19.00;6.83;;;;;;;-2.52;86.10;101316.09;5010649;28;20034;-77
2022/01/16 03:11:37;;;;;;;23.33;8.80;;;;;;;-2.56;86.33;101301.22;5011766;28;20033;-75
2022/01/16 03:14:05;;;;;;;18.23;7.03;;;;;;;-2.59;86.48;101296.75;5012873;28;20026;-77
2022/01/16 03:16:31;;;;;;;22.43;8.33;;;;;;;-2.58;86.68;101279.56;5016311;28;20404;-76
2022/01/16 03:21:57;;;;;;;22.77;6.83;;;;;;;-2.74;86.26;101270.00;5008457;28;20124;-76
2022/01/16 03:24:39;;;;;;;17.90;7.53;;;;;;;-2.74;87.02;101270.91;5009898;28;20065;-76
2022/01/16 03:27:07;;;;;;;23.97;7.77;;;;;;;-2.75;86.39;101279.47;5008731;28;20091;-77
2022/01/16 03:29:34;;;;;;;18.27;7.37;;;;;;;-2.72;86.85;101264.13;5003759;28;20038;-77
2022/01/16 03:32:01;;;;;;;18.40;6.90;;;;;;;-2.70;86.80;101259.97;5019896;28;20045;-77
2022/01/16 03:34:27;;;;;;;18.10;6.80;;;;;;;-2.75;86.64;101245.88;5005754;28;20076;-77
2022/01/16 03:36:52;;;;;;;16.40;6.70;;;;;;;-2.75;86.85;101238.13;5010146;28;20120;-77
2022/01/16 03:39:18;;;;;;;23.73;7.53;;;;;;;-2.76;86.62;101230.28;5011623;28;20412;-76
2022/01/16 03:41:44;;;;;;;18.60;6.87;;;;;;;-2.73;86.93;101223.59;5018640;28;20083;-77
2022/01/16 03:44:10;;;;;;;28.00;8.17;;;;;;;-2.75;86.40;101237.22;5010383;28;20038;-77
2022/01/16 03:46:41;;;;;;;27.37;9.97;;;;;;;-2.74;87.20;101223.50;5011133;28;20057;-77
2022/01/16 03:49:06;;;;;;;18.07;7.87;;;;;;;-2.74;86.80;101223.50;5011438;28;20034;-76
2022/01/16 03:51:32;;;;;;;24.57;7.63;;;;;;;-2.71;86.71;101223.69;5018604;28;20531;-77
2022/01/16 03:53:58;;;;;;;18.50;7.27;;;;;;;-2.69;86.45;101222.09;5010357;28;20038;-77
2022/01/16 03:56:23;;;;;;;23.60;8.20;;;;;;;-2.67;86.00;101223.97;5018508;28;20030;-77
2022/01/16 03:58:49;;;;;;;19.80;7.70;;;;;;;-2.67;85.90;101220.50;5010770;28;20042;-77
2022/01/16 04:01:15;;;;;;;19.50;8.37;;;;;;;-2.65;86.46;101219.78;5010224;28;20117;-77
2022/01/16 04:03:40;;;;;;;23.30;8.70;;;;;;;-2.62;86.29;101219.06;5009951;28;20045;-77
2022/01/16 04:06:06;;;;;;;20.20;8.10;;;;;;;-2.60;86.02;101207.09;5011246;28;20153;-77
2022/01/16 04:08:31;;;;;;;20.70;7.60;;;;;;;-2.57;86.00;101211.56;5011159;28;20030;-77
2022/01/16 04:10:56;;;;;;;23.90;9.03;;;;;;;-2.57;85.78;101198.63;5011215;28;20157;-76
2022/01/16 04:13:22;;;;;;;18.33;7.37;;;;;;;-2.58;85.58;101207.19;5011286;28;20475;-77
2022/01/16 04:15:47;;;;;;;19.10;7.33;;;;;;;-2.62;85.25;101208.72;5010797;28;20037;-77
2022/01/16 04:18:13;;;;;;;20.63;7.90;;;;;;;-2.59;86.06;101205.41;5009945;28;20046;-77
2022/01/16 04:20:38;;;;;;;29.50;9.57;;;;;;;-2.58;85.99;101189.09;5018161;28;20033;-77
2022/01/16 04:23:04;;;;;;;29.33;10.17;;;;;;;-2.55;85.89;101186.69;5011091;28;20435;-77
2022/01/16 04:25:31;;;;;;;20.63;8.90;;;;;;;-2.55;86.34;101192.75;5018286;28;20540;-77
2022/01/16 04:27:56;;;;;;;23.40;9.17;;;;;;;-2.61;86.04;101183.78;5011321;28;20116;-77
2022/01/16 04:30:22;;;;;;;21.43;9.23;;;;;;;-2.60;85.47;101185.53;5008749;28;20064;-77
2022/01/16 04:32:48;;;;;;;24.97;9.30;;;;;;;-2.58;85.91;101196.84;5010990;28;20034;-77
2022/01/16 04:35:13;;;;;;;22.40;8.57;;;;;;;-2.62;85.93;101200.06;5011021;28;20030;-77
2022/01/16 04:37:38;;;;;;;22.13;7.97;;;;;;;-2.67;85.51;101195.53;5011071;28;20034;-77
2022/01/16 04:40:05;;;;;;;23.93;8.60;;;;;;;-2.65;85.65;101186.19;5013895;28;20034;-77
2022/01/16 04:45:15;;;;;;;28.63;9.13;;;;;;;-2.57;85.87;101184.00;5011599;28;20044;-77
2022/01/16 04:47:40;;;;;;;26.23;9.63;;;;;;;-2.57;85.54;101181.44;5013069;28;20042;-76
2022/01/16 04:50:07;;;;;;;25.77;9.37;;;;;;;-2.67;84.97;101173.97;5014547;28;20034;-77
2022/01/16 04:52:32;;;;;;;23.10;9.47;;;;;;;-2.68;85.84;101170.47;5013323;28;20472;-77
2022/01/16 04:54:58;;;;;;;24.37;11.37;;;;;;;-2.65;86.35;101167.19;5014313;28;20128;-77
2022/01/16 04:57:23;;;;;;;23.13;9.40;;;;;;;-2.58;86.08;101158.97;5014327;28;20034;-77
2022/01/16 04:59:48;;;;;;;21.70;9.50;;;;;;;-2.53;85.88;101159.25;5014558;28;20038;-77
2022/01/16 05:02:13;;;;;;;25.67;9.27;;;;;;;-2.51;85.92;101153.38;5014351;28;20038;-77
2022/01/16 05:04:39;;;;;;;18.17;8.00;;;;;;;-2.50;86.00;101146.50;5013845;28;20053;-77
2022/01/16 05:07:06;;;;;;;21.83;9.23;;;;;;;-2.50;85.17;101151.66;5013903;28;20049;-77
2022/01/16 05:09:31;;;;;;;21.87;10.17;;;;;;;-2.51;86.33;101150.78;5014268;28;20045;-77
2022/01/16 05:11:59;;;;;;;26.50;11.77;;;;;;;-2.47;86.16;101150.13;5014040;28;20040;-77
2022/01/16 05:17:08;;;;;;;32.83;13.10;;;;;;;-2.31;87.31;101144.13;5013757;28;20077;-77
2022/01/16 05:19:33;;;;;;;24.50;10.97;;;;;;;-2.26;87.08;101131.44;5014496;28;20127;-77
2022/01/16 05:21:59;;;;;;;26.90;10.13;;;;;;;-2.25;86.62;101128.97;5014162;28;20045;-77
2022/01/16 05:24:30;;;;;;;29.73;11.67;;;;;;;-2.21;86.10;101119.66;5013691;28;20065;-76
2022/01/16 05:26:55;;;;;;;21.70;10.43;;;;;;;-2.18;86.13;101109.47;5016726;28;20612;-77
2022/01/16 05:29:21;;;;;;;28.90;11.23;;;;;;;-2.18;86.27;101108.59;5016947;28;20057;-77
2022/01/16 05:31:47;;;;;;;29.33;11.50;;;;;;;-2.13;86.63;101117.50;5017176;28;20085;-77
2022/01/16 05:34:17;;;;;;;25.80;10.50;;;;;;;-2.07;86.73;101108.38;5017408;28;20040;-77
2022/01/16 05:36:42;;;;;;;21.67;10.80;;;;;;;-2.08;86.28;101100.53;5016152;28;20041;-78
2022/01/16 05:39:08;;;;;;;27.10;11.87;;;;;;;-2.07;85.89;101092.88;5017172;28;20096;-77
2022/01/16 05:41:33;;;;;;;26.20;12.00;;;;;;;-2.09;86.53;101099.66;5016878;28;20177;-78
2022/01/16 05:43:58;;;;;;;24.57;11.57;;;;;;;-2.04;85.62;101097.31;5015841;28;20065;-77
2022/01/16 05:46:24;;;;;;;29.70;11.63;;;;;;;-1.99;86.41;101095.88;5015851;28;20049;-77
2022/01/16 05:48:50;;;;;;;26.43;10.80;;;;;;;-1.97;86.34;101096.81;5013582;28;20052;-77
2022/01/16 05:51:16;;;;;;;20.17;11.67;;;;;;;-1.96;85.61;101092.56;5013022;28;20045;-77
2022/01/16 05:53:44;;;;;;;25.07;11.20;;;;;;;-1.98;85.89;101092.47;5013222;28;20080;-77
2022/01/16 05:56:09;;;;;;;30.77;13.20;;;;;;;-1.96;85.78;101090.84;5013402;28;20038;-77
2022/01/16 05:58:35;;;;;;;28.97;12.33;;;;;;;-1.93;85.82;101096.19;5014082;28;20057;-77
2022/01/16 06:01:00;;;;;;;25.87;11.53;;;;;;;-1.87;86.32;101095.59;5014083;28;20049;-77
2022/01/16 06:03:25;;;;;;;26.70;13.23;;;;;;;-1.84;85.96;101091.47;5015057;28;20033;-77
2022/01/16 06:05:51;;;;;;;30.80;12.83;;;;;;;-1.80;86.34;101095.13;5015707;28;20076;-77
2022/01/16 06:08:16;;;;;;;25.63;13.07;;;;;;;-1.77;86.40;101101.34;5015855;28;20045;-77
2022/01/16 06:10:42;;;;;;;26.10;12.67;;;;;;;-1.72;86.50;101090.34;5015846;28;20048;-77
2022/01/16 06:13:08;;;;;;;25.57;13.33;;;;;;;-1.68;86.35;101084.53;5019895;28;20092;-77
2022/01/16 06:15:34;;;;;;;30.90;12.73;;;;;;;-1.62;86.45;101079.69;5012482;28;20030;-77
2022/01/16 06:18:03;;;;;;;25.90;13.57;;;;;;;-1.59;86.53;101074.66;5012824;28;20040;-77
2022/01/16 06:20:29;;;;;;;31.10;14.40;;;;;;;-1.56;86.40;101074.81;5009093;28;20046;-77
2022/01/16 06:22:54;;;;;;;27.53;13.83;;;;;;;-1.51;86.24;101064.69;5019668;28;20026;-77
2022/01/16 06:25:20;;;;;;;30.23;14.00;;;;;;;-1.46;86.11;101066.69;5012363;28;20066;-77
2022/01/16 06:27:46;;;;;;;28.73;13.47;;;;;;;-1.44;86.00;101067.69;5020092;28;20049;-77
2022/01/16 06:30:11;;;;;;;24.57;13.00;;;;;;;-1.41;86.23;101078.19;5012964;28;20034;-76
2022/01/16 06:32:38;;;;;;;29.60;14.07;;;;;;;-1.34;86.25;101081.94;5012842;28;20137;-77
2022/01/16 06:35:05;;;;;;;28.57;14.30;;;;;;;-1.28;86.40;101087.47;5012546;28;20034;-76
2022/01/16 06:37:31;;;;;;;31.10;15.50;;;;;;;-1.26;86.26;101088.41;5012548;28;20773;-77
2022/01/16 06:39:56;;;;;;;28.00;14.63;;;;;;;-1.21;86.31;101091.22;5012284;28;20145;-76
2022/01/16 06:42:22;;;;;;;30.50;14.70;;;;;;;-1.22;85.97;101086.88;5010748;28;20065;-76
2022/01/16 06:44:47;;;;;;;33.40;15.40;;;;;;;-1.19;86.06;101089.63;5010774;28;20042;-76
2022/01/16 06:47:12;;;;;;;29.97;14.80;;;;;;;-1.17;85.67;101090.59;5012849;28;20038;-77
2022/01/16 06:49:38;;;;;;;23.63;12.40;;;;;;;-1.20;85.63;101098.22;5012231;28;20037;-77
2022/01/16 06:52:04;;;;;;;26.33;14.50;;;;;;;-1.18;85.48;101101.75;5000035;28;20149;-77
2022/01/16 06:54:29;;;;;;;25.87;14.37;;;;;;;-1.17;85.51;101106.13;5011174;28;20038;-76
2022/01/16 06:56:55;;;;;;;25.53;14.33;;;;;;;-1.18;86.17;101105.25;5013241;28;20061;-79
2022/01/16 06:59:20;;;;;;;30.23;13.70;;;;;;;-1.15;85.87;101107.09;5014498;28;20033;-77
2022/01/16 07:01:45;;;;;;;25.47;13.27;;;;;;;-1.13;85.45;101100.28;5014967;28;20496;-78
2022/01/16 07:04:11;;;;;;;29.07;14.17;;;;;;;-1.11;85.46;101099.53;5029889;28;20041;-77
2022/01/16 07:06:36;;;;;;;31.67;15.50;;;;;;;-1.15;85.54;101096.75;5014309;28;20058;-76
2022/01/16 07:09:01;;;;;;;28.37;13.70;;;;;;;-1.16;84.85;101092.34;5022705;28;20064;-77
2022/01/16 07:11:27;;;;;;;25.23;13.73;;;;;;;-1.19;85.03;101094.78;5016089;28;20709;-77
2022/01/16 07:13:52;;;;;;;30.80;15.77;;;;;;;-1.16;85.48;101106.19;5023647;28;20034;-78
2022/01/16 07:16:18;;;;;;;26.60;13.57;;;;;;;-1.15;85.17;101107.09;5018913;28;20037;-78
2022/01/16 07:18:43;;;;;;;30.20;13.73;;;;;;;-1.13;85.14;101103.78;5018003;28;20492;-78
2022/01/16 07:21:13;;;;;;;32.03;14.93;;;;;;;-1.07;86.03;101110.97;5013382;28;20052;-77
2022/01/16 07:23:44;;;;;;;27.93;16.43;;;;;;;-1.00;85.69;101112.13;5022666;28;20128;-77
2022/01/16 07:26:10;;;;;;;31.92;16.70;;;;;;;-0.97;85.78;101099.34;5005300;28;20728;-78
2022/01/16 07:28:36;;;;;;;31.30;17.67;;;;;;;-0.89;85.65;101106.69;5016175;28;20029;-78
2022/01/16 07:31:01;;;;;;;32.90;18.20;;;;;;;-0.81;85.17;101108.75;5015918;28;20033;-77
2022/01/16 07:33:27;;;;;;;35.00;19.13;;;;;;;-0.81;84.95;101108.75;5015371;28;20467;-78
2022/01/16 07:35:52;;;;;;;28.63;16.67;;;;;;;-0.77;85.24;101113.28;5014481;28;20061;-77
2022/01/16 07:38:17;;;;;;;25.53;15.13;;;;;;;-0.70;84.58;101117.94;5014770;28;20042;-77
2022/01/16 07:40:43;;;;;;;28.13;14.50;;;;;;;-0.68;84.66;101121.50;5013917;28;20026;-77
2022/01/16 07:43:08;;;;;;;23.83;14.50;;;;;;;-0.65;84.96;101115.59;5020739;28;20508;-78
2022/01/16 07:45:34;;;;;;;26.30;14.97;;;;;;;-0.58;84.75;101122.81;5014512;28;20034;-78
2022/01/16 07:48:00;;;;;;;24.80;14.47;;;;;;;-0.53;84.43;101119.63;5017156;28;20561;-78
2022/01/16 07:50:25;;;;;;;26.00;15.40;;;;;;;-0.49;84.36;101124.16;5017161;28;20061;-78
2022/01/16 07:52:51;;;;;;;25.83;15.73;;;;;;;-0.46;83.97;101123.44;5016705;28;20030;-78
2022/01/16 07:55:18;;;;;;;25.03;14.83;;;;;;;-0.35;84.19;101132.59;5017106;28;20034;-79
2022/01/16 07:57:44;;;;;;;24.87;15.03;;;;;;;-0.28;83.69;101133.78;5015119;28;20515;-76
2022/01/16 08:00:10;;;;;;;23.83;14.37;;;;;;;-0.22;83.96;101119.38;5010955;28;20366;-76
2022/01/16 08:02:39;;;;;;;25.03;15.63;;;;;;;-0.15;83.44;101109.31;5010271;28;20045;-78
2022/01/16 08:05:05;;;;;;;21.00;14.57;;;;;;;-0.09;82.99;101114.78;5009206;28;20048;-75
2022/01/16 08:07:30;;;;;;;25.93;15.60;;;;;;;-0.01;82.83;101119.50;5011164;28;20484;-76
2022/01/16 08:09:55;;;;;;;26.57;14.90;;;;;;;0.07;82.59;101112.06;5010763;28;20038;-75
2022/01/16 08:12:21;;;;;;;25.53;15.53;;;;;;;0.15;82.50;101117.59;5012821;28;20081;-75
2022/01/16 08:14:46;;;;;;;25.20;15.30;;;;;;;0.20;82.40;101140.34;5012620;28;20049;-76
2022/01/16 08:17:12;;;;;;;24.33;15.20;;;;;;;0.27;82.11;101130.25;5014571;28;20042;-76
2022/01/16 08:19:38;;;;;;;24.83;15.63;;;;;;;0.33;81.91;101125.31;5013847;28;20037;-75
2022/01/16 08:22:03;;;;;;;20.83;13.57;;;;;;;0.40;81.60;101128.25;5013140;28;20069;-75
2022/01/16 08:24:29;;;;;;;23.80;14.67;;;;;;;0.38;81.60;101124.69;5014134;28;20033;-76
2022/01/16 08:26:54;;;;;;;21.50;14.10;;;;;;;0.50;81.60;101124.38;5013126;28;20415;-76
2022/01/16 08:29:19;;;;;;;22.70;14.17;;;;;;;0.56;81.78;101119.44;5014429;28;20472;-76
2022/01/16 08:31:45;;;;;;;22.70;14.20;;;;;;;0.64;81.17;101127.56;5014394;28;20095;-75
2022/01/16 08:34:10;;;;;;;22.63;14.27;;;;;;;0.59;80.74;101123.88;5014611;28;20032;-75
2022/01/16 08:36:36;;;;;;;25.70;14.93;;;;;;;0.65;81.23;101119.84;5014648;28;20439;-75
2022/01/16 08:39:02;;;;;;;24.92;15.82;;;;;;;0.76;80.82;101117.72;5014460;28;20069;-76
2022/01/16 08:41:28;;;;;;;27.35;15.48;;;;;;;0.79;80.27;101107.44;5013250;28;20038;-75
2022/01/16 08:43:53;;;;;;;22.92;14.95;;;;;;;0.96;80.74;101109.84;5012826;28;20088;-75
2022/01/16 08:46:20;;;;;;;22.17;13.55;;;;;;;1.08;80.31;101099.97;5013587;28;20038;-75
2022/01/16 08:48:46;;;;;;;22.85;14.02;;;;;;;1.21;79.85;101112.66;5014113;28;20068;-76
2022/01/16 08:51:13;;;;;;;21.85;13.73;;;;;;;1.29;79.26;101103.44;5010649;28;20033;-76
2022/01/16 08:53:38;;;;;;;22.58;14.32;;;;;;;1.33;78.78;101106.16;5013883;28;20042;-76
2022/01/16 08:56:04;;;;;;;22.88;14.48;;;;;;;1.41;78.80;101104.75;5012602;28;20087;-77
2022/01/16 08:58:29;;;;;;;24.42;14.82;;;;;;;1.42;78.78;101104.84;5013424;28;20038;-76
2022/01/16 09:00:55;;;;;;;22.33;14.30;;;;;;;1.55;78.95;101106.22;5017749;28;20069;-76
2022/01/16 09:03:22;;;;;;;22.25;13.75;;;;;;;1.61;78.51;101103.84;5014275;28;20045;-75
2022/01/16 09:05:49;;;;;;;22.42;14.73;;;;;;;1.66;78.61;101111.84;5013888;28;20396;-76
2022/01/16 09:08:15;;;;;;;23.85;14.75;;;;;;;1.70;78.16;101114.63;5013551;28;20034;-76
2022/01/16 09:10:41;;;;;;;18.85;13.50;;;;;;;1.78;78.11;101117.50;5013765;28;20044;-76
2022/01/16 09:13:11;;;;;;;22.58;14.07;;;;;;;1.89;77.85;101123.13;5018735;28;20045;-76
2022/01/16 09:15:37;;;;;;;21.58;14.20;;;;;;;1.86;77.85;101121.31;5013194;28;20042;-76
2022/01/16 09:18:02;;;;;;;23.50;13.10;;;;;;;1.85;77.69;101121.22;5013545;28;20045;-77
2022/01/16 09:20:27;;;;;;;22.35;14.07;;;;;;;1.90;77.41;101124.91;5012300;28;20034;-76
2022/01/16 09:22:53;;;;;;;19.17;12.60;;;;;;;1.92;77.68;101118.94;5014747;28;20507;-77
2022/01/16 09:25:20;;;;;;;20.40;12.80;;;;;;;1.93;77.42;101117.22;5013196;28;20050;-76
2022/01/16 09:27:45;;;;;;;19.13;12.85;;;;;;;1.95;77.44;101116.44;5013726;28;20037;-76
2022/01/16 09:30:12;;;;;;;20.52;13.35;;;;;;;2.00;77.46;101115.75;5014366;28;20041;-77
2022/01/16 09:32:38;;;;;;;19.90;14.07;;;;;;;2.08;77.63;101123.00;5012030;28;20034;-77
2022/01/16 09:35:05;;;;;;;19.23;12.80;;;;;;;2.16;77.56;101118.09;5013277;28;20026;-76
2022/01/16 09:37:31;;;;;;;19.48;13.00;;;;;;;2.14;76.83;101115.41;5013780;28;20152;-76
2022/01/16 09:39:58;;;;;;;19.83;13.55;;;;;;;2.23;76.79;101109.66;5013884;28;20140;-77
2022/01/16 09:42:24;;;;;;;19.30;12.63;;;;;;;2.33;77.12;101103.97;5017846;28;20033;-77
2022/01/16 09:44:50;;;;;;;22.02;12.50;;;;;;;2.29;76.60;101106.41;5017770;28;20085;-76
2022/01/16 09:47:16;;;;;;;19.00;12.98;;;;;;;2.31;76.23;101100.41;5012994;28;20456;-76
2022/01/16 09:49:41;;;;;;;18.45;12.95;;;;;;;2.23;76.97;101094.03;5012497;28;20104;-75
2022/01/16 09:52:07;;;;;;;17.65;11.85;;;;;;;2.34;77.16;101091.81;5012902;28;20033;-76
2022/01/16 09:54:35;;;;;;;18.80;12.07;;;;;;;2.35;76.64;101090.97;5012163;28;20022;-75
2022/01/16 09:57:00;;;;;;;16.35;10.82;;;;;;;2.38;76.18;101088.47;5012592;28;20040;-76
2022/01/16 09:59:25;;;;;;;18.30;11.35;;;;;;;2.30;76.72;101097.75;5011294;28;20037;-76
2022/01/16 10:01:51;;;;;;;19.92;12.38;;;;;;;2.33;76.69;101096.16;5012838;28;20104;-75
2022/01/16 10:04:38;;;;;;;17.92;10.80;;;;;;;2.40;76.25;101087.72;5011344;28;20077;-76
2022/01/16 10:07:10;;;;;;;17.55;11.05;;;;;;;2.42;76.15;101088.66;5011285;28;20038;-75
2022/01/16 10:09:37;;;;;;;15.02;10.70;;;;;;;2.44;76.51;101087.81;5012502;28;20042;-76
2022/01/16 10:12:13;;;;;;;22.13;12.20;;;;;;;2.46;75.72;101078.34;5011430;28;20045;-78
2022/01/16 10:14:46;;;;;;;16.77;10.70;;;;;;;2.45;76.22;101082.66;5008877;28;20077;-78
2022/01/16 10:17:16;;;;;;;15.85;10.43;;;;;;;2.61;76.15;101074.56;5021972;28;20064;-76
2022/01/16 10:19:42;;;;;;;15.98;11.30;;;;;;;2.69;75.81;101081.75;5018445;28;20033;-76
2022/01/16 10:22:10;;;;;;;16.58;11.27;;;;;;;2.86;75.76;101070.19;5011320;28;20037;-76
2022/01/16 10:24:39;;;;;;;18.90;11.38;;;;;;;3.07;75.19;101068.28;5011898;28;20030;-76
2022/01/16 10:27:07;;;;;;;16.80;10.23;;;;;;;3.17;74.74;101065.97;5010972;28;20413;-76
2022/01/16 10:29:39;;;;;;;18.88;11.35;;;;;;;3.21;74.23;101063.50;5011877;28;20037;-76
2022/01/16 10:32:21;;;;;;;20.75;13.63;;;;;;;3.30;73.93;101057.69;5009495;28;20034;-76
2022/01/16 10:34:50;;;;;;;18.95;12.32;;;;;;;3.26;74.53;101056.72;5012041;28;20103;-76
2022/01/16 10:37:27;;;;;;;21.88;12.52;;;;;;;3.27;74.64;101052.38;5011307;28;20051;-77
2022/01/16 10:39:59;;;;;;;19.00;12.30;;;;;;;3.52;74.79;101048.84;5010689;28;20038;-76
2022/01/16 10:42:25;;;;;;;18.90;12.50;;;;;;;3.70;74.01;101038.94;5010809;28;20064;-77
2022/01/16 10:45:06;;;;;;;21.23;12.45;;;;;;;3.73;73.42;101053.81;5011921;28;20048;-76
2022/01/16 10:47:37;;;;;;;20.25;11.57;;;;;;;3.66;72.95;101078.84;5012009;28;20026;-77
2022/01/16 10:50:10;;;;;;;18.58;11.90;;;;;;;3.56;73.71;101068.06;5013649;28;20034;-77
2022/01/16 10:52:48;;;;;;;17.50;11.65;;;;;;;3.45;74.20;101058.19;5013795;28;20124;-76
2022/01/16 10:55:14;;;;;;;16.92;11.82;;;;;;;3.38;74.54;101068.38;5010002;28;20042;-77
2022/01/16 10:57:40;;;;;;;17.23;10.73;;;;;;;3.31;75.06;101062.09;5017339;28;20038;-77
2022/01/16 11:00:10;;;;;;;18.63;11.38;;;;;;;3.22;75.20;101083.56;5015564;28;20065;-77
2022/01/16 11:02:38;;;;;;;21.15;13.05;;;;;;;3.06;75.58;101073.44;5000953;28;20048;-77
2022/01/16 11:05:21;;;;;;;21.95;12.13;;;;;;;3.23;75.68;101081.84;5013812;28;20022;-77
2022/01/16 11:07:56;;;;;;;17.27;11.52;;;;;;;3.27;75.81;101086.28;5015683;28;20124;-76
2022/01/16 11:10:29;;;;;;;18.20;12.18;;;;;;;3.27;75.89;101091.50;5033891;28;20506;-77
2022/01/16 11:12:59;;;;;;;18.60;12.05;;;;;;;3.04;76.06;101083.84;5010573;28;20033;-77
2022/01/16 11:15:25;;;;;;;20.77;12.98;;;;;;;3.01;76.55;101095.88;5015487;28;20029;-77
2022/01/16 11:17:51;;;;;;;20.17;12.50;;;;;;;3.03;77.22;101108.13;5014836;28;20033;-77
2022/01/16 11:20:22;;;;;;;19.52;12.55;;;;;;;3.04;77.28;101091.66;5010881;28;20562;-76
2022/01/16 11:25:31;;;;;;;18.83;11.27;;;;;;;3.03;78.05;101094.22;5017808;28;20029;-77
2022/01/16 11:28:05;;;;;;;18.88;12.38;;;;;;;2.94;78.24;101092.19;5017669;28;20120;-77
2022/01/16 11:30:33;;;;;;;20.63;13.52;;;;;;;2.85;79.17;101111.00;5018771;28;20049;-78
2022/01/16 11:32:59;;;;;;;18.33;12.35;;;;;;;2.83;79.51;101106.59;5016805;28;20080;-77
2022/01/16 11:35:27;;;;;;;20.60;13.18;;;;;;;2.77;79.97;101103.75;5019419;28;20034;-77
2022/01/16 11:37:52;;;;;;;21.67;12.68;;;;;;;2.84;79.95;101104.03;5019639;28;20038;-78
2022/01/16 11:40:27;;;;;;;22.67;13.73;;;;;;;2.91;79.92;101107.75;5016783;28;20045;-77
2022/01/16 11:43:23;;;;;;;21.25;12.52;;;;;;;2.89;79.92;101096.38;5016867;28;20041;-77
2022/01/16 11:46:03;;;;;;;19.60;12.68;;;;;;;3.04;79.73;101080.34;5014916;28;20054;-76
2022/01/16 11:48:47;;;;;;;19.00;13.15;;;;;;;3.11;79.87;101095.34;5014827;28;20048;-77
2022/01/16 11:54:04;;;;;;;21.23;13.77;;;;;;;3.12;79.77;101089.31;5012312;28;20124;-73
2022/01/16 11:57:00;;;;;;;19.17;12.20;;;;;;;3.07;80.14;101091.75;5014325;28;20510;-77
2022/01/16 11:59:34;;;;;;;22.83;14.40;;;;;;;3.15;80.42;101088.53;5012233;28;20034;-73
2022/01/16 12:02:09;;;;;;;19.45;12.00;;;;;;;3.14;79.67;101094.56;5015168;28;20033;-75